Time;durP1;ratioP1;P1;durP2;ratioP2;P2;SDS_P1;SDS_P2;PMS_P1;PMS_P2;Temp;Humidity;BMP_temperature;BMP_pressure;BME280_temperature;BME280_humidity;BME280_pressure;Samples;Min_cycle;Max_cycle;Signal;HPM_P1;HPM_P2
2022/03/07 00:02:09;;;;;;;35.15;15.88;;;1.70;52.90;;;;;;5074286;28;20020;-86
2022/03/07 00:04:35;;;;;;;34.30;15.40;;;1.70;53.00;;;;;;5074028;28;20027;-86
2022/03/07 00:07:01;;;;;;;39.30;16.80;;;1.70;53.10;;;;;;5075407;28;20092;-86
2022/03/07 00:09:26;;;;;;;38.50;15.18;;;1.70;53.20;;;;;;5074256;28;20024;-86
2022/03/07 00:11:52;;;;;;;35.40;15.73;;;1.60;53.20;;;;;;5074687;28;20449;-87
2022/03/07 00:14:17;;;;;;;29.20;15.30;;;1.60;53.30;;;;;;5073599;28;20032;-87
2022/03/07 00:16:44;;;;;;;35.75;15.32;;;1.60;53.30;;;;;;5073733;28;20507;-87
2022/03/07 00:19:09;;;;;;;37.83;15.67;;;1.60;53.20;;;;;;5073925;28;20086;-87
2022/03/07 00:21:36;;;;;;;35.13;16.02;;;1.60;53.20;;;;;;5073506;28;20431;-87
2022/03/07 00:24:02;;;;;;;37.43;15.37;;;1.60;53.30;;;;;;5073535;28;20024;-87
2022/03/07 00:26:28;;;;;;;32.30;14.30;;;1.60;53.30;;;;;;5073682;28;20047;-87
2022/03/07 00:28:54;;;;;;;34.65;14.70;;;1.60;53.30;;;;;;5073804;28;20485;-87
2022/03/07 00:31:21;;;;;;;30.85;14.98;;;1.50;53.30;;;;;;5073205;28;20039;-87
2022/03/07 00:33:47;;;;;;;32.73;15.40;;;1.60;53.40;;;;;;5073753;28;20095;-87
2022/03/07 00:36:14;;;;;;;35.67;16.90;;;1.50;53.30;;;;;;5074190;28;20033;-87
2022/03/07 00:38:40;;;;;;;32.33;14.37;;;1.50;53.30;;;;;;5090930;28;20025;-87
2022/03/07 00:41:08;;;;;;;33.70;16.08;;;1.50;53.40;;;;;;5073841;28;20001;-87
2022/03/07 00:43:34;;;;;;;34.90;15.23;;;1.50;53.40;;;;;;5073582;28;20020;-86
2022/03/07 00:45:59;;;;;;;28.60;14.73;;;1.50;53.40;;;;;;5074632;28;20032;-86
2022/03/07 00:48:25;;;;;;;32.10;15.77;;;1.40;53.50;;;;;;5074257;28;20118;-86
2022/03/07 00:50:51;;;;;;;;;;;1.40;53.50;;;;;;5076508;28;20048;-86
2022/03/07 00:53:19;;;;;;;30.03;13.93;;;1.40;53.50;;;;;;5078244;28;19922;-87
2022/03/07 00:55:45;;;;;;;19.37;8.50;;;1.40;53.40;;;;;;5077596;28;20444;-87
2022/03/07 00:58:11;;;;;;;33.63;14.23;;;1.30;53.50;;;;;;5077122;28;20071;-87
2022/03/07 01:00:37;;;;;;;29.77;14.25;;;1.30;53.60;;;;;;5075790;28;20527;-87
2022/03/07 01:03:08;;;;;;;25.73;13.27;;;1.30;53.70;;;;;;5075915;28;20024;-86
2022/03/07 01:05:33;;;;;;;31.20;14.00;;;1.20;53.90;;;;;;5080428;28;20115;-85
2022/03/07 01:08:00;;;;;;;32.42;14.90;;;1.20;54.00;;;;;;5076037;28;20078;-86
2022/03/07 01:10:25;;;;;;;;;;;1.20;54.20;;;;;;5077482;28;20025;-86
2022/03/07 01:12:51;;;;;;;32.23;13.93;;;1.10;54.20;;;;;;5078185;28;19909;-85
2022/03/07 01:15:17;;;;;;;31.47;14.53;;;1.20;54.00;;;;;;5077882;28;20033;-86
2022/03/07 01:17:43;;;;;;;28.35;14.77;;;1.10;54.20;;;;;;5076937;28;20056;-86
2022/03/07 01:20:09;;;;;;;;;;;1.10;54.30;;;;;;5077319;28;20082;-87
2022/03/07 01:22:35;;;;;;;30.50;12.53;;;1.20;54.40;;;;;;5077633;28;19915;-86
2022/03/07 01:25:01;;;;;;;;;;;1.10;54.20;;;;;;5077839;28;20044;-86
2022/03/07 01:27:27;;;;;;;36.20;15.43;;;1.20;54.50;;;;;;5077516;28;19912;-87
2022/03/07 01:29:52;;;;;;;32.95;13.55;;;1.10;54.30;;;;;;5076452;28;20034;-87
2022/03/07 01:32:18;;;;;;;31.95;15.32;;;1.10;54.50;;;;;;5076975;28;20020;-87
2022/03/07 01:34:44;;;;;;;32.65;16.20;;;1.10;54.70;;;;;;5077442;28;20426;-87
2022/03/07 01:37:09;;;;;;;34.40;15.95;;;1.00;54.90;;;;;;5076687;28;20052;-84
2022/03/07 01:39:35;;;;;;;;;;;1.00;55.10;;;;;;5076402;28;20021;-86
2022/03/07 01:42:01;;;;;;;31.10;10.90;;;1.10;55.20;;;;;;5077279;28;20304;-87
2022/03/07 01:44:30;;;;;;;30.20;14.55;;;1.00;55.20;;;;;;5076848;28;20028;-85
2022/03/07 01:46:56;;;;;;;33.30;14.53;;;1.00;55.70;;;;;;5077109;28;20082;-86
2022/03/07 01:49:24;;;;;;;32.20;15.07;;;0.90;55.90;;;;;;5076884;28;20378;-85
2022/03/07 01:51:49;;;;;;;32.77;15.63;;;0.80;56.10;;;;;;5076892;28;20032;-86
2022/03/07 01:54:17;;;;;;;32.90;13.85;;;0.80;56.30;;;;;;5078130;28;20054;-85
2022/03/07 01:56:46;;;;;;;31.83;14.70;;;0.80;56.40;;;;;;5076261;28;20052;-86
2022/03/07 01:59:18;;;;;;;33.20;15.33;;;0.80;56.50;;;;;;5077718;28;20051;-85
2022/03/07 02:01:45;;;;;;;31.13;15.47;;;0.80;56.80;;;;;;5074590;28;20040;-86
2022/03/07 02:04:11;;;;;;;34.00;16.43;;;0.80;56.80;;;;;;5076145;28;20044;-86
2022/03/07 02:06:38;;;;;;;32.72;15.63;;;0.80;56.90;;;;;;5075725;28;20013;-86
2022/03/07 02:09:04;;;;;;;30.33;14.93;;;0.80;57.00;;;;;;5076174;28;20024;-86
2022/03/07 02:11:31;;;;;;;33.80;16.73;;;0.80;57.00;;;;;;5076156;28;20058;-86
2022/03/07 02:13:57;;;;;;;39.17;16.70;;;0.80;57.10;;;;;;5077334;28;20163;-85
2022/03/07 02:16:22;;;;;;;33.92;16.80;;;0.80;57.10;;;;;;5075776;28;20508;-86
2022/03/07 02:18:48;;;;;;;32.08;16.33;;;0.80;57.10;;;;;;5076115;28;20040;-86
2022/03/07 02:21:14;;;;;;;;;;;0.80;57.10;;;;;;5076197;28;20024;-87
2022/03/07 02:23:41;;;;;;;35.60;15.90;;;0.90;57.10;;;;;;5075278;28;19934;-85
2022/03/07 02:26:18;;;;;;;32.37;15.33;;;0.80;56.70;;;;;;5075889;28;20036;-86
2022/03/07 02:28:46;;;;;;;35.63;13.97;;;0.80;56.90;;;;;;5077331;28;20024;-86
2022/03/07 02:31:16;;;;;;;36.03;16.37;;;0.80;56.90;;;;;;5092902;28;20052;-86
2022/03/07 02:33:42;;;;;;;33.70;15.43;;;0.80;57.00;;;;;;5075792;28;20055;-86
2022/03/07 02:36:08;;;;;;;31.73;16.05;;;0.80;56.90;;;;;;5075392;28;20025;-85
2022/03/07 02:38:34;;;;;;;33.20;15.65;;;0.80;56.90;;;;;;5075518;28;20021;-86
2022/03/07 02:41:00;;;;;;;33.33;15.77;;;0.80;56.80;;;;;;5076440;28;20047;-86
2022/03/07 02:43:25;;;;;;;34.00;15.07;;;0.80;56.70;;;;;;5076347;28;20036;-86
2022/03/07 02:45:51;;;;;;;30.30;15.10;;;0.80;56.70;;;;;;5075099;28;20090;-86
2022/03/07 02:48:18;;;;;;;35.65;15.13;;;0.80;56.60;;;;;;5075645;28;20508;-86
2022/03/07 02:50:47;;;;;;;28.57;14.17;;;0.70;56.50;;;;;;5076033;28;20108;-85
2022/03/07 02:53:13;;;;;;;30.63;14.07;;;0.70;56.40;;;;;;5071833;28;20489;-85
2022/03/07 02:55:39;;;;;;;32.47;15.77;;;0.70;56.40;;;;;;5074978;28;20028;-85
2022/03/07 02:58:04;;;;;;;29.35;13.93;;;0.70;56.30;;;;;;5075028;28;20078;-86
2022/03/07 03:00:31;;;;;;;27.60;13.20;;;0.70;56.20;;;;;;5075774;28;20035;-87
2022/03/07 03:02:56;;;;;;;28.17;14.53;;;0.70;56.20;;;;;;5075124;28;20027;-87
2022/03/07 03:05:23;;;;;;;28.80;13.02;;;0.70;56.00;;;;;;5074730;28;20512;-86
2022/03/07 03:07:50;;;;;;;28.33;13.27;;;0.70;55.90;;;;;;5075297;28;20029;-87
2022/03/07 03:10:17;;;;;;;27.13;13.23;;;0.70;55.80;;;;;;5076583;28;20031;-86
2022/03/07 03:12:43;;;;;;;26.13;12.33;;;0.70;55.70;;;;;;5074799;28;20401;-86
2022/03/07 03:15:09;;;;;;;;;;;0.70;55.50;;;;;;5075549;28;20432;-86
2022/03/07 03:17:37;;;;;;;25.27;11.50;;;0.70;55.40;;;;;;5076495;28;19916;-86
2022/03/07 03:20:03;;;;;;;14.03;8.20;;;0.70;55.10;;;;;;5074865;28;20028;-87
2022/03/07 03:22:29;;;;;;;24.80;11.50;;;0.60;54.90;;;;;;5074930;28;20028;-87
2022/03/07 03:24:56;;;;;;;24.17;12.32;;;0.60;54.60;;;;;;5074456;28;20021;-87
2022/03/07 03:27:22;;;;;;;23.87;11.90;;;0.60;54.50;;;;;;5074266;28;20028;-85
2022/03/07 03:29:48;;;;;;;;;;;0.50;54.30;;;;;;5074837;28;20024;-86
2022/03/07 03:32:13;;;;;;;25.93;12.07;;;0.50;54.30;;;;;;5075272;28;19988;-85
2022/03/07 03:34:39;;;;;;;;;;;0.50;54.00;;;;;;5075481;28;20024;-86
2022/03/07 03:37:04;;;;;;;22.53;11.57;;;0.50;53.90;;;;;;5074843;28;20349;-86
2022/03/07 03:39:30;;;;;;;;;;;0.50;53.30;;;;;;5075182;28;20396;-87
2022/03/07 03:41:55;;;;;;;26.60;12.47;;;0.40;53.40;;;;;;5073773;28;20380;-87
2022/03/07 03:44:21;;;;;;;;;;;0.40;53.20;;;;;;5073946;28;20036;-86
2022/03/07 03:46:46;;;;;;;26.60;12.13;;;0.40;53.40;;;;;;5074309;28;19931;-86
2022/03/07 03:49:12;;;;;;;;;;;0.40;53.30;;;;;;5074977;28;20047;-85
2022/03/07 03:51:37;;;;;;;26.07;11.80;;;0.30;53.30;;;;;;5074612;28;19951;-86
2022/03/07 03:54:03;;;;;;;27.55;12.70;;;0.30;53.20;;;;;;5074376;28;20052;-86
2022/03/07 03:56:29;;;;;;;25.75;11.00;;;0.20;53.30;;;;;;5074077;28;20016;-84
2022/03/07 03:58:54;;;;;;;22.10;11.27;;;0.20;53.30;;;;;;5073489;28;20036;-86
2022/03/07 04:01:20;;;;;;;21.25;11.13;;;0.20;53.30;;;;;;5073639;28;20054;-86
2022/03/07 04:03:45;;;;;;;;;;;0.20;53.20;;;;;;5074530;28;20021;-85
2022/03/07 04:06:11;;;;;;;28.27;12.63;;;0.20;53.00;;;;;;5074277;28;19916;-85
2022/03/07 04:08:37;;;;;;;27.38;11.95;;;0.20;52.80;;;;;;5073909;28;20028;-85
2022/03/07 04:11:02;;;;;;;;;;;0.10;52.90;;;;;;5074586;28;20596;-87
2022/03/07 04:13:28;;;;;;;32.77;13.47;;;0.10;53.10;;;;;;5074397;28;19935;-86
2022/03/07 04:15:53;;;;;;;29.77;11.75;;;0.10;53.00;;;;;;5074082;28;20052;-86
2022/03/07 04:18:19;;;;;;;32.67;13.45;;;0.10;53.10;;;;;;5073551;28;20068;-86
2022/03/07 04:20:44;;;;;;;29.77;13.15;;;0.10;53.10;;;;;;5074133;28;20481;-86
2022/03/07 04:23:10;;;;;;;27.95;12.57;;;0.10;53.00;;;;;;5074810;28;20439;-86
2022/03/07 04:25:36;;;;;;;24.10;12.32;;;0.20;53.00;;;;;;5074468;28;20027;-86
2022/03/07 04:28:02;;;;;;;29.30;13.10;;;0.20;53.00;;;;;;5075314;28;20051;-86
2022/03/07 04:30:27;;;;;;;30.20;13.45;;;0.20;53.00;;;;;;5073910;28;20021;-86
2022/03/07 04:32:53;;;;;;;32.45;15.18;;;0.30;53.00;;;;;;5074805;28;20130;-85
2022/03/07 04:35:19;;;;;;;29.13;13.15;;;0.30;52.90;;;;;;5074089;28;20532;-86
2022/03/07 04:37:44;;;;;;;24.58;12.80;;;0.30;52.90;;;;;;5075407;28;20039;-87
2022/03/07 04:40:13;;;;;;;31.20;14.13;;;0.30;52.90;;;;;;5075276;28;20116;-86
2022/03/07 04:42:40;;;;;;;33.23;13.27;;;0.30;52.80;;;;;;5074563;28;20377;-86
2022/03/07 04:45:07;;;;;;;27.47;12.50;;;0.30;52.80;;;;;;5074567;28;20023;-86
2022/03/07 04:47:33;;;;;;;26.67;13.33;;;0.30;52.80;;;;;;5073438;28;20021;-86
2022/03/07 04:49:59;;;;;;;28.27;13.85;;;0.30;52.80;;;;;;5073185;28;20040;-86
2022/03/07 04:52:24;;;;;;;28.92;12.95;;;0.30;52.90;;;;;;5073339;28;20031;-86
2022/03/07 04:54:50;;;;;;;28.75;13.07;;;0.30;52.80;;;;;;5073531;28;20047;-86
2022/03/07 04:57:16;;;;;;;31.52;12.82;;;0.30;52.80;;;;;;5073542;28;20456;-87
2022/03/07 04:59:45;;;;;;;;;;;0.40;52.70;;;;;;5073872;28;20115;-87
2022/03/07 05:02:11;;;;;;;26.90;12.57;;;0.40;52.70;;;;;;5075425;28;19908;-86
2022/03/07 05:04:37;;;;;;;31.00;14.73;;;0.30;52.50;;;;;;5073119;28;20466;-86
2022/03/07 05:07:03;;;;;;;31.48;13.48;;;0.30;52.50;;;;;;5074141;28;20009;-87
2022/03/07 05:09:28;;;;;;;32.45;14.95;;;0.30;52.60;;;;;;5073957;28;20082;-87
2022/03/07 05:11:54;;;;;;;32.90;15.38;;;0.40;52.60;;;;;;5076778;28;20032;-87
2022/03/07 05:14:19;;;;;;;;;;;0.40;52.60;;;;;;5076353;28;20031;-87
2022/03/07 05:16:45;;;;;;;28.23;14.97;;;0.40;52.60;;;;;;5073513;28;19995;-86
2022/03/07 05:19:11;;;;;;;33.97;14.52;;;0.40;52.40;;;;;;5073778;28;20055;-86
2022/03/07 05:21:37;;;;;;;30.80;15.15;;;0.40;52.40;;;;;;5074514;28;20017;-86
2022/03/07 05:24:03;;;;;;;28.25;15.45;;;0.40;52.50;;;;;;5074258;28;20017;-86
2022/03/07 05:26:28;;;;;;;33.97;15.52;;;0.40;52.50;;;;;;5074150;28;20027;-87
2022/03/07 05:28:55;;;;;;;35.03;15.05;;;0.40;52.50;;;;;;5074705;28;20040;-86
2022/03/07 05:31:21;;;;;;;32.97;14.57;;;0.40;52.50;;;;;;5073739;28;20008;-87
2022/03/07 05:33:46;;;;;;;32.75;15.40;;;0.40;52.50;;;;;;5073541;28;20986;-86
2022/03/07 05:36:12;;;;;;;;;;;0.40;52.60;;;;;;5073661;28;20476;-86
2022/03/07 05:38:38;;;;;;;31.60;15.47;;;0.50;52.60;;;;;;5093457;28;19961;-86
2022/03/07 05:41:04;;;;;;;35.78;14.98;;;0.50;52.40;;;;;;5095263;28;20016;-87
2022/03/07 05:43:29;;;;;;;30.80;15.25;;;0.50;52.50;;;;;;5077818;28;20469;-87
2022/03/07 05:45:55;;;;;;;35.03;15.50;;;0.50;52.50;;;;;;5077133;28;20013;-87
2022/03/07 05:48:20;;;;;;;;;;;0.50;52.50;;;;;;5078591;28;20036;-86
2022/03/07 05:50:46;;;;;;;33.10;15.63;;;0.60;52.50;;;;;;5076428;28;20318;-86
2022/03/07 05:53:11;;;;;;;32.22;15.45;;;0.60;52.30;;;;;;5078675;28;20033;-86
2022/03/07 05:55:37;;;;;;;30.27;13.27;;;0.50;52.40;;;;;;5076819;28;20055;-86
2022/03/07 05:58:03;;;;;;;;;;;0.50;52.40;;;;;;5079638;28;20020;-87
2022/03/07 06:00:29;;;;;;;22.93;10.37;;;0.50;52.50;;;;;;5080519;28;19954;-86
2022/03/07 06:02:56;;;;;;;28.23;14.30;;;0.60;52.20;;;;;;5076754;28;20465;-86
2022/03/07 06:05:22;;;;;;;34.03;15.13;;;0.50;52.40;;;;;;5082203;28;20405;-85
2022/03/07 06:07:48;;;;;;;31.50;13.93;;;0.50;52.50;;;;;;5075480;28;20066;-83
2022/03/07 06:10:13;;;;;;;31.00;13.50;;;0.50;52.60;;;;;;5075485;28;20029;-87
2022/03/07 06:12:39;;;;;;;24.95;12.20;;;0.50;52.70;;;;;;5076757;28;20576;-86
2022/03/07 06:15:06;;;;;;;32.47;13.45;;;0.50;52.80;;;;;;5078456;28;20020;-87
2022/03/07 06:20:50;;;;;;;30.73;15.63;;;0.50;53.10;;;;;;5071819;28;20117;-86
2022/03/07 06:23:15;;;;;;;27.77;13.70;;;0.40;53.20;;;;;;5080631;28;20049;-87
2022/03/07 06:25:41;;;;;;;29.33;14.63;;;0.50;53.40;;;;;;5075574;28;20025;-86
2022/03/07 06:28:06;;;;;;;35.08;15.85;;;0.50;53.50;;;;;;5076696;28;20032;-86
2022/03/07 06:30:32;;;;;;;31.35;14.43;;;0.50;53.50;;;;;;5076267;28;20122;-86
2022/03/07 06:33:00;;;;;;;;;;;0.60;53.60;;;;;;5077241;28;20039;-86
2022/03/07 06:35:50;;;;;;;39.43;15.47;;;0.60;53.70;;;;;;5075649;28;19999;-86
2022/03/07 06:38:16;;;;;;;33.97;14.70;;;0.60;53.70;;;;;;5094810;28;20457;-86
2022/03/07 06:40:42;;;;;;;22.50;11.27;;;0.70;54.00;;;;;;5074557;28;20424;-84
2022/03/07 06:43:08;;;;;;;24.08;10.00;;;0.60;54.10;;;;;;5074550;28;20024;-85
2022/03/07 06:45:33;;;;;;;26.02;12.73;;;0.60;54.30;;;;;;5073626;28;20099;-83
2022/03/07 06:48:00;;;;;;;35.92;15.30;;;0.70;54.40;;;;;;5072916;28;20016;-83
2022/03/07 06:50:26;;;;;;;16.37;7.53;;;0.70;54.70;;;;;;5072865;28;20027;-83
2022/03/07 06:52:52;;;;;;;25.83;11.87;;;0.70;55.00;;;;;;5072629;28;20024;-83
2022/03/07 06:55:20;;;;;;;32.85;13.63;;;0.70;55.00;;;;;;5073256;28;20027;-82
2022/03/07 06:57:46;;;;;;;30.00;14.43;;;0.70;55.20;;;;;;5076013;28;20373;-84
2022/03/07 07:00:14;;;;;;;34.22;14.27;;;0.80;55.30;;;;;;5073087;28;20021;-84
2022/03/07 07:02:42;;;;;;;32.13;13.50;;;0.80;55.50;;;;;;5073044;28;20017;-82
2022/03/07 07:05:08;;;;;;;30.33;14.03;;;0.80;55.50;;;;;;5072750;28;20054;-83
2022/03/07 07:07:35;;;;;;;19.00;9.67;;;0.80;55.60;;;;;;5072650;28;20024;-83
2022/03/07 07:10:02;;;;;;;33.60;15.73;;;0.80;55.70;;;;;;5072623;28;20056;-83
2022/03/07 07:12:28;;;;;;;31.43;14.20;;;0.80;55.80;;;;;;5074924;28;20017;-83
2022/03/07 07:14:53;;;;;;;31.77;13.65;;;0.90;55.80;;;;;;5077328;28;20435;-86
2022/03/07 07:17:19;;;;;;;37.85;14.55;;;0.90;55.80;;;;;;5076014;28;20501;-83
2022/03/07 07:19:44;;;;;;;23.95;11.68;;;1.00;55.80;;;;;;5079533;28;20062;-87
2022/03/07 07:22:10;;;;;;;18.75;9.23;;;1.00;55.80;;;;;;5082402;28;20020;-89
2022/03/07 07:24:36;;;;;;;30.00;13.38;;;1.10;55.80;;;;;;5099988;28;20084;-90
2022/03/07 07:27:02;;;;;;;;;;;1.10;55.70;;;;;;5078193;28;20028;-90
2022/03/07 07:29:28;;;;;;;25.83;11.30;;;1.20;55.70;;;;;;5079056;28;19908;-90
2022/03/07 07:31:53;;;;;;;23.77;11.88;;;1.30;55.50;;;;;;5080149;28;20070;-89
2022/03/07 07:34:20;;;;;;;32.60;14.30;;;1.40;55.50;;;;;;5075559;28;20039;-89
2022/03/07 07:36:46;;;;;;;32.50;13.80;;;1.40;55.40;;;;;;5075900;28;20096;-88
2022/03/07 07:39:12;;;;;;;;;;;1.40;55.40;;;;;;5076507;28;20044;-89
2022/03/07 07:41:37;;;;;;;25.90;12.83;;;1.50;55.50;;;;;;5076760;28;19909;-88
2022/03/07 07:44:03;;;;;;;29.80;13.02;;;1.60;55.20;;;;;;5075860;28;20031;-87
2022/03/07 07:46:29;;;;;;;24.80;12.13;;;1.60;55.20;;;;;;5080095;28;20031;-88
2022/03/07 07:48:54;;;;;;;;;;;1.60;55.20;;;;;;5075431;28;20024;-88
2022/03/07 07:51:20;;;;;;;25.13;11.87;;;1.70;55.20;;;;;;5076315;28;19908;-88
2022/03/07 07:53:46;;;;;;;29.02;12.32;;;1.80;54.90;;;;;;5075657;28;20055;-88
2022/03/07 07:56:12;;;;;;;24.08;11.90;;;1.80;54.90;;;;;;5075283;28;20389;-87
2022/03/07 07:58:37;;;;;;;27.63;12.75;;;1.90;54.70;;;;;;5074541;28;20430;-87
2022/03/07 08:01:04;;;;;;;25.77;12.55;;;1.90;54.70;;;;;;5072488;28;20036;-87
2022/03/07 08:03:29;;;;;;;28.53;12.30;;;1.90;54.70;;;;;;5077069;28;20502;-88
2022/03/07 08:05:55;;;;;;;21.75;11.02;;;1.90;54.60;;;;;;5091617;28;20032;-88
2022/03/07 08:08:21;;;;;;;25.35;12.48;;;1.90;54.60;;;;;;5077769;28;20025;-88
2022/03/07 08:10:46;;;;;;;18.85;10.73;;;2.00;54.50;;;;;;5074444;28;20032;-88
2022/03/07 08:13:12;;;;;;;34.75;13.65;;;2.00;54.50;;;;;;5076762;28;20043;-88
2022/03/07 08:15:40;;;;;;;24.13;12.60;;;2.10;54.40;;;;;;5075165;28;20408;-87
2022/03/07 08:18:06;;;;;;;19.30;10.27;;;2.10;54.30;;;;;;5074186;28;20392;-88
2022/03/07 08:20:33;;;;;;;29.20;13.47;;;2.20;54.20;;;;;;5057553;28;20161;-88
2022/03/07 08:22:59;;;;;;;29.13;13.30;;;2.30;54.20;;;;;;5075738;28;20052;-88
2022/03/07 08:25:25;;;;;;;;;;;2.30;54.20;;;;;;5076429;28;20036;-87
2022/03/07 08:27:51;;;;;;;34.00;13.77;;;2.40;54.10;;;;;;5078980;28;19959;-85
2022/03/07 08:30:19;;;;;;;26.50;12.83;;;2.40;53.80;;;;;;5080481;28;20024;-86
2022/03/07 08:32:45;;;;;;;25.00;12.80;;;2.50;53.70;;;;;;5073324;28;20024;-84
2022/03/07 08:35:12;;;;;;;25.20;13.70;;;2.60;53.60;;;;;;5071591;28;20058;-84
2022/03/07 08:37:38;;;;;;;26.00;13.27;;;2.70;53.50;;;;;;5071477;28;20469;-84
2022/03/07 08:40:04;;;;;;;;;;;2.80;53.30;;;;;;5071480;28;20032;-84
2022/03/07 08:42:30;;;;;;;16.77;8.68;;;2.80;53.20;;;;;;5071969;28;19909;-85
2022/03/07 08:44:55;;;;;;;;;;;2.90;52.90;;;;;;5071827;28;20017;-85
2022/03/07 08:47:21;;;;;;;21.13;9.50;;;2.90;52.70;;;;;;5072002;28;19905;-85
2022/03/07 08:49:47;;;;;;;25.10;12.43;;;3.00;52.30;;;;;;5071413;28;20086;-85
2022/03/07 08:52:15;;;;;;;24.90;10.90;;;3.00;52.40;;;;;;5071370;28;20036;-83
2022/03/07 08:54:46;;;;;;;29.70;14.00;;;3.00;52.40;;;;;;5071508;28;20078;-84
2022/03/07 08:57:12;;;;;;;24.67;11.63;;;3.00;52.40;;;;;;5068002;28;20034;-85
2022/03/07 08:59:39;;;;;;;;;;;3.20;52.50;;;;;;5080377;28;20017;-87
2022/03/07 09:02:05;;;;;;;24.92;12.30;;;3.30;52.30;;;;;;5080401;28;20371;-86
2022/03/07 09:04:31;;;;;;;;;;;3.50;51.90;;;;;;5074667;28;20016;-86
2022/03/07 09:06:57;;;;;;;13.77;6.53;;;3.60;51.70;;;;;;5074075;28;19908;-87
2022/03/07 09:09:22;;;;;;;14.23;7.10;;;3.60;50.50;;;;;;5092726;28;20019;-87
2022/03/07 09:11:48;;;;;;;;;;;3.60;50.40;;;;;;5076550;28;20008;-86
2022/03/07 09:14:14;;;;;;;22.97;10.63;;;3.60;50.40;;;;;;5076550;28;19892;-87
2022/03/07 09:16:40;;;;;;;19.00;10.47;;;3.80;50.20;;;;;;5076926;28;20063;-86
2022/03/07 09:19:06;;;;;;;20.00;9.90;;;3.80;49.90;;;;;;5077070;28;20035;-86
2022/03/07 09:21:32;;;;;;;18.58;9.82;;;3.90;49.70;;;;;;5076560;28;20028;-86
2022/03/07 09:23:58;;;;;;;22.23;10.45;;;4.10;49.50;;;;;;5077742;28;20013;-87
2022/03/07 09:26:23;;;;;;;17.38;8.30;;;4.30;49.10;;;;;;5077765;28;20074;-86
2022/03/07 09:28:50;;;;;;;21.95;9.52;;;4.40;48.80;;;;;;5081081;28;20020;-86
2022/03/07 09:31:16;;;;;;;13.63;6.93;;;4.70;48.60;;;;;;5076574;28;20024;-86
2022/03/07 09:33:41;;;;;;;17.23;8.57;;;4.90;48.20;;;;;;5084217;28;20015;-87
2022/03/07 09:36:08;;;;;;;15.43;8.93;;;5.00;47.80;;;;;;5077510;28;20029;-87
2022/03/07 09:38:36;;;;;;;15.93;7.97;;;5.20;47.50;;;;;;5082424;28;20533;-87
2022/03/07 09:41:03;;;;;;;17.43;7.27;;;5.30;47.00;;;;;;5079602;28;20485;-87
2022/03/07 09:43:28;;;;;;;13.33;7.57;;;5.50;46.50;;;;;;5077405;28;20029;-86
2022/03/07 09:45:54;;;;;;;14.43;7.20;;;5.70;46.20;;;;;;5077258;28;20350;-86
2022/03/07 09:48:22;;;;;;;15.10;6.90;;;5.80;45.50;;;;;;5076666;28;20016;-87
2022/03/07 09:50:48;;;;;;;11.43;6.57;;;5.90;45.10;;;;;;5073381;28;20462;-86
2022/03/07 09:53:13;;;;;;;10.63;7.10;;;5.90;43.80;;;;;;5079459;28;20060;-86
2022/03/07 09:55:39;;;;;;;13.65;6.65;;;5.90;44.00;;;;;;5075734;28;20393;-86
2022/03/07 09:58:06;;;;;;;;;;;6.00;44.10;;;;;;5075588;28;20067;-86
2022/03/07 10:00:32;;;;;;;11.85;6.32;;;6.10;44.10;;;;;;5075209;28;20292;-86
2022/03/07 10:03:02;;;;;;;10.45;5.10;;;6.20;43.50;;;;;;5080635;28;20036;-86
2022/03/07 10:05:31;;;;;;;12.83;7.03;;;6.30;42.90;;;;;;5072678;28;20023;-87
2022/03/07 10:07:57;;;;;;;13.63;6.50;;;6.40;42.70;;;;;;5076048;28;20028;-86
2022/03/07 10:10:29;;;;;;;12.98;6.07;;;6.40;42.70;;;;;;5092760;28;20024;-87
2022/03/07 10:12:54;;;;;;;10.67;6.10;;;6.60;42.40;;;;;;5074230;28;20032;-87
2022/03/07 10:15:22;;;;;;;11.23;6.07;;;6.80;41.90;;;;;;5074781;28;21504;-87
2022/03/07 10:17:52;;;;;;;11.63;5.93;;;6.90;41.90;;;;;;5076789;28;20064;-87
2022/03/07 10:20:20;;;;;;;11.67;5.50;;;7.00;41.80;;;;;;5075281;28;20095;-86
2022/03/07 10:22:49;;;;;;;9.80;5.47;;;7.10;41.50;;;;;;5074494;28;20021;-87
2022/03/07 10:25:16;;;;;;;13.23;5.00;;;7.20;41.50;;;;;;5074284;28;20016;-86
2022/03/07 10:27:45;;;;;;;9.50;5.53;;;7.30;41.20;;;;;;5075016;28;20096;-86
2022/03/07 10:30:13;;;;;;;11.40;5.50;;;7.40;41.10;;;;;;5075176;28;20032;-86
2022/03/07 10:32:39;;;;;;;10.00;4.30;;;7.70;40.70;;;;;;5075431;28;20104;-86
2022/03/07 10:35:06;;;;;;;12.23;4.03;;;8.20;39.90;;;;;;5075044;28;20481;-86
2022/03/07 10:37:37;;;;;;;10.90;5.00;;;8.50;39.10;;;;;;5077978;28;20105;-86
2022/03/07 10:40:07;;;;;;;11.30;5.17;;;9.10;38.50;;;;;;5074622;28;20554;-85
2022/03/07 10:42:43;;;;;;;12.25;4.88;;;9.80;37.90;;;;;;5076551;28;20021;-87
2022/03/07 10:45:09;;;;;;;15.95;6.47;;;9.80;37.50;;;;;;5076437;28;20016;-86
2022/03/07 10:47:34;;;;;;;;;;;9.60;37.60;;;;;;5078727;28;20108;-87
2022/03/07 10:50:01;;;;;;;13.80;6.88;;;9.30;38.00;;;;;;5075784;28;19908;-87
2022/03/07 10:52:41;;;;;;;12.93;6.10;;;9.20;38.00;;;;;;5074780;28;20492;-87
2022/03/07 10:55:09;;;;;;;15.83;7.37;;;9.00;38.10;;;;;;5073582;28;20115;-87
2022/03/07 10:57:42;;;;;;;16.60;6.93;;;8.90;38.30;;;;;;5076355;28;20040;-86
2022/03/07 11:00:17;;;;;;;10.40;5.93;;;8.70;38.00;;;;;;5077520;28;20031;-87
2022/03/07 11:02:44;;;;;;;8.40;4.53;;;8.60;38.30;;;;;;5079799;28;20050;-87
2022/03/07 11:05:13;;;;;;;8.97;4.30;;;8.60;38.30;;;;;;5075582;28;20107;-87
2022/03/07 11:07:41;;;;;;;12.43;4.72;;;8.70;38.00;;;;;;5074795;28;20016;-87
2022/03/07 11:10:08;;;;;;;9.87;3.63;;;8.70;37.50;;;;;;5059211;28;20045;-86
2022/03/07 11:12:34;;;;;;;8.38;4.07;;;9.30;36.90;;;;;;5092200;28;20020;-87
2022/03/07 11:15:06;;;;;;;;;;;10.10;36.30;;;;;;5075689;28;20489;-86
2022/03/07 11:17:32;;;;;;;10.10;5.07;;;10.30;36.20;;;;;;5075222;28;20078;-87
2022/03/07 11:19:58;;;;;;;;;;;10.30;36.20;;;;;;5074843;28;20051;-88
2022/03/07 11:22:24;;;;;;;9.53;5.00;;;10.30;36.40;;;;;;5074947;28;19913;-86
2022/03/07 11:24:50;;;;;;;;;;;10.20;36.20;;;;;;5075525;28;20550;-87
2022/03/07 11:27:17;;;;;;;8.38;4.00;;;10.00;36.40;;;;;;5078210;28;20357;-87
2022/03/07 11:29:43;;;;;;;8.43;4.28;;;9.80;36.00;;;;;;5077821;28;20028;-85
2022/03/07 11:32:14;;;;;;;10.55;5.32;;;9.70;36.10;;;;;;5076866;28;20059;-86
2022/03/07 11:34:52;;;;;;;10.70;5.22;;;9.40;35.90;;;;;;5075653;28;20108;-86
2022/03/07 11:37:19;;;;;;;10.05;5.05;;;9.30;35.90;;;;;;5073998;28;20017;-86
2022/03/07 11:39:45;;;;;;;12.20;4.68;;;9.00;36.30;;;;;;5074014;28;20027;-86
2022/03/07 11:42:17;;;;;;;10.63;5.23;;;8.80;36.40;;;;;;5074475;28;20028;-87
2022/03/07 11:44:43;;;;;;;11.10;5.82;;;8.50;36.40;;;;;;5076105;28;20153;-87
2022/03/07 11:47:14;;;;;;;10.03;5.60;;;8.30;36.50;;;;;;5074989;28;20021;-87
2022/03/07 11:49:41;;;;;;;11.93;5.97;;;8.20;36.60;;;;;;5073764;28;20032;-87
2022/03/07 11:52:09;;;;;;;12.40;6.13;;;7.90;36.80;;;;;;5076249;28;20036;-87
2022/03/07 11:54:51;;;;;;;14.17;6.97;;;7.80;37.10;;;;;;5073266;28;20031;-84
2022/03/07 11:57:18;;;;;;;12.47;6.03;;;7.80;37.30;;;;;;5073638;28;20546;-84
2022/03/07 11:59:43;;;;;;;12.80;6.40;;;7.80;37.40;;;;;;5072283;28;20050;-85
2022/03/07 12:02:09;;;;;;;12.30;5.80;;;7.80;37.50;;;;;;5078766;28;20024;-84
2022/03/07 12:04:39;;;;;;;;;;;7.70;37.50;;;;;;5074513;28;20021;-85
2022/03/07 12:07:05;;;;;;;23.77;9.63;;;7.70;37.60;;;;;;5089691;28;19912;-85
2022/03/07 12:09:33;;;;;;;18.15;8.00;;;7.80;37.40;;;;;;5073719;28;20023;-85
2022/03/07 12:12:02;;;;;;;15.60;8.23;;;7.80;37.10;;;;;;5073542;28;20055;-85
2022/03/07 12:14:31;;;;;;;11.13;5.80;;;7.60;37.50;;;;;;5072084;28;20051;-85
2022/03/07 12:17:00;;;;;;;10.90;5.40;;;7.60;37.70;;;;;;5073527;28;20135;-85
2022/03/07 12:19:28;;;;;;;12.33;6.13;;;7.60;37.80;;;;;;5073210;28;20416;-84
2022/03/07 12:21:54;;;;;;;11.67;5.90;;;7.50;37.80;;;;;;5073737;28;20027;-84
2022/03/07 12:24:22;;;;;;;14.70;5.43;;;7.60;37.70;;;;;;5073967;28;20020;-84
2022/03/07 12:26:52;;;;;;;11.57;5.70;;;7.60;37.60;;;;;;5076720;28;20031;-85
2022/03/07 12:29:20;;;;;;;11.07;5.50;;;7.70;37.60;;;;;;5073719;28;20028;-84
2022/03/07 12:31:53;;;;;;;9.33;4.77;;;7.90;37.40;;;;;;5073538;28;20031;-86
2022/03/07 12:34:28;;;;;;;11.27;5.60;;;8.00;37.30;;;;;;5075008;28;20074;-85
2022/03/07 12:37:18;;;;;;;11.13;5.17;;;7.90;37.20;;;;;;5072724;28;20423;-85
2022/03/07 12:39:46;;;;;;;7.30;4.37;;;7.80;37.20;;;;;;5070868;28;20059;-85
2022/03/07 12:42:13;;;;;;;10.43;4.97;;;7.90;37.20;;;;;;5072326;28;20021;-85
2022/03/07 12:44:39;;;;;;;9.67;4.93;;;8.10;36.70;;;;;;5075071;28;20024;-84
2022/03/07 12:47:07;;;;;;;9.87;5.07;;;8.20;36.70;;;;;;5094103;27;20481;-85
2022/03/07 12:49:32;;;;;;;10.80;4.53;;;8.20;36.70;;;;;;5079889;28;20167;-84
2022/03/07 12:52:04;;;;;;;11.10;4.75;;;8.10;36.70;;;;;;5077211;28;20119;-86